createdAt,value
2022-08-26T00:02:12.044Z,100846.86
2022-08-26T00:04:43.216Z,100846.18
2022-08-26T00:07:10.701Z,100847.45
2022-08-26T00:09:40.071Z,100847.69
2022-08-26T00:12:09.351Z,100850.19
2022-08-26T00:14:42.981Z,100853.02
2022-08-26T00:17:10.716Z,100852.14
2022-08-26T00:19:38.285Z,100848.48
2022-08-26T00:22:05.966Z,100850.49
2022-08-26T00:24:33.278Z,100843.44
2022-08-26T00:27:00.524Z,100844.71
2022-08-26T00:29:28.168Z,100845.23
2022-08-26T00:31:59.177Z,100846.66
2022-08-26T00:34:26.313Z,100841.23
2022-08-26T00:36:54.144Z,100842.64
2022-08-26T00:39:22.731Z,100842.39
2022-08-26T00:41:50.017Z,100839.81
2022-08-26T00:44:19.019Z,100841.35
2022-08-26T00:46:55.545Z,100839.19
2022-08-26T00:49:43.943Z,100838.80
2022-08-26T00:52:19.999Z,100839.83
2022-08-26T00:55:00.411Z,100837.89
2022-08-26T00:57:28.199Z,100837.94
2022-08-26T00:59:58.980Z,100836.08
2022-08-26T01:02:27.206Z,100841.52
2022-08-26T01:05:00.477Z,100838.67
2022-08-26T01:07:31.342Z,100837.05
2022-08-26T01:10:06.532Z,100832.95
2022-08-26T01:12:40.336Z,100833.83
2022-08-26T01:15:13.174Z,100834.35
2022-08-26T01:17:44.278Z,100832.10
2022-08-26T01:21:07.662Z,100835.58
2022-08-26T01:23:40.126Z,100831.89
2022-08-26T01:26:19.954Z,100830.77
2022-08-26T01:28:51.697Z,100829.67
2022-08-26T01:31:24.270Z,100830.30
2022-08-26T01:34:02.109Z,100830.69
2022-08-26T01:36:32.819Z,100829.33
2022-08-26T01:39:00.013Z,100831.40
2022-08-26T01:41:29.088Z,100832.02
2022-08-26T01:43:56.825Z,100832.66
2022-08-26T01:46:26.817Z,100828.70
2022-08-26T01:48:57.194Z,100831.50
2022-08-26T01:51:25.717Z,100834.30
2022-08-26T01:53:53.965Z,100839.69
2022-08-26T01:56:23.277Z,100838.06
2022-08-26T01:58:55.536Z,100839.23
2022-08-26T02:01:29.230Z,100837.23
2022-08-26T02:04:20.565Z,100835.88
2022-08-26T02:06:48.347Z,100830.23
2022-08-26T02:09:18.662Z,100830.48
2022-08-26T02:11:47.514Z,100829.94
2022-08-26T02:14:32.323Z,100830.33
2022-08-26T02:17:03.397Z,100834.41
2022-08-26T02:19:38.966Z,100834.48
2022-08-26T02:22:13.688Z,100838.73
2022-08-26T02:24:56.043Z,100836.23
2022-08-26T02:27:34.545Z,100837.66
2022-08-26T02:30:18.000Z,100838.36
2022-08-26T02:32:46.019Z,100832.10
2022-08-26T02:35:20.325Z,100835.50
2022-08-26T02:37:49.333Z,100831.88
2022-08-26T02:40:21.840Z,100835.65
2022-08-26T02:42:49.877Z,100828.25
2022-08-26T02:45:23.052Z,100831.75
2022-08-26T02:47:51.655Z,100829.94
2022-08-26T02:50:20.436Z,100832.83
2022-08-26T02:52:48.093Z,100834.19
2022-08-26T02:55:15.759Z,100831.29
2022-08-26T02:57:43.426Z,100827.73
2022-08-26T03:00:14.670Z,100828.98
2022-08-26T03:02:42.148Z,100831.67
2022-08-26T03:05:11.093Z,100833.69
2022-08-26T03:07:39.287Z,100834.65
2022-08-26T03:10:08.749Z,100839.68
2022-08-26T03:12:36.757Z,100843.02
2022-08-26T03:15:15.871Z,100844.11
2022-08-26T03:17:47.761Z,100844.67
2022-08-26T03:20:17.313Z,100843.78
2022-08-26T03:22:45.492Z,100843.34
2022-08-26T03:25:15.993Z,100843.11
2022-08-26T03:27:43.421Z,100846.89
2022-08-26T03:30:31.022Z,100846.76
2022-08-26T03:32:58.409Z,100844.36
2022-08-26T03:35:26.063Z,100839.16
2022-08-26T03:37:53.761Z,100836.70
2022-08-26T03:40:22.349Z,100837.55
2022-08-26T03:42:50.588Z,100836.48
2022-08-26T03:45:19.193Z,100835.86
2022-08-26T03:47:47.751Z,100833.17
2022-08-26T03:50:22.705Z,100831.36
2022-08-26T03:52:52.651Z,100833.10
2022-08-26T03:55:23.773Z,100833.27
2022-08-26T03:57:52.638Z,100829.88
2022-08-26T04:00:20.501Z,100827.44
2022-08-26T04:02:50.728Z,100829.33
2022-08-26T04:05:22.855Z,100832.54
2022-08-26T04:07:51.878Z,100832.52
2022-08-26T04:10:28.537Z,100832.80
2022-08-26T04:12:59.825Z,100831.63
2022-08-26T04:15:27.662Z,100829.98
2022-08-26T04:17:55.909Z,100825.55
2022-08-26T04:20:26.494Z,100828.77
2022-08-26T04:22:53.922Z,100825.84
2022-08-26T04:25:24.615Z,100826.08
2022-08-26T04:27:52.481Z,100828.88
2022-08-26T04:30:20.314Z,100825.94
2022-08-26T04:32:49.792Z,100827.27
2022-08-26T04:35:18.060Z,100828.06
2022-08-26T04:37:45.878Z,100822.07
2022-08-26T04:40:33.325Z,100824.02
2022-08-26T04:43:15.970Z,100822.34
2022-08-26T04:46:04.071Z,100816.59
2022-08-26T04:49:11.154Z,100807.00
2022-08-26T04:53:21.676Z,100822.91
2022-08-26T04:56:12.664Z,100825.31
2022-08-26T04:58:40.856Z,100826.35
2022-08-26T05:01:08.830Z,100826.45
2022-08-26T05:03:36.488Z,100824.25
2022-08-26T05:06:05.271Z,100824.97
2022-08-26T05:08:32.661Z,100825.90
2022-08-26T05:11:07.564Z,100824.70
2022-08-26T05:13:38.708Z,100825.73
2022-08-26T05:16:11.675Z,100829.55
2022-08-26T05:18:40.923Z,100830.89
2022-08-26T05:21:24.256Z,100835.52
2022-08-26T05:23:54.280Z,100836.05
2022-08-26T05:26:24.594Z,100840.02
2022-08-26T05:28:54.965Z,100840.96
2022-08-26T05:31:27.828Z,100838.08
2022-08-26T05:33:57.062Z,100837.88
2022-08-26T05:36:27.754Z,100837.17
2022-08-26T05:38:57.610Z,100831.64
2022-08-26T05:41:34.171Z,100823.71
2022-08-26T05:44:05.649Z,100819.21
2022-08-26T05:46:34.417Z,100818.33
2022-08-26T05:49:03.566Z,100818.88
2022-08-26T05:51:31.011Z,100820.13
2022-08-26T05:54:01.495Z,100822.19
2022-08-26T05:56:30.800Z,100820.90
2022-08-26T05:59:02.348Z,100819.21
2022-08-26T06:01:35.461Z,100819.83
2022-08-26T06:04:03.919Z,100821.91
2022-08-26T06:06:34.645Z,100820.89
2022-08-26T06:09:03.930Z,100815.60
2022-08-26T06:11:32.515Z,100814.08
2022-08-26T06:14:04.403Z,100819.70
2022-08-26T06:16:37.770Z,100818.13
2022-08-26T06:19:10.917Z,100818.64
2022-08-26T06:21:41.513Z,100821.11
2022-08-26T06:24:31.315Z,100818.36
2022-08-26T06:27:05.668Z,100816.45
2022-08-26T06:29:36.156Z,100813.23
2022-08-26T06:32:06.308Z,100811.87
2022-08-26T06:34:33.713Z,100815.75
2022-08-26T06:37:02.394Z,100825.54
2022-08-26T06:39:31.385Z,100826.98
2022-08-26T06:42:00.572Z,100824.01
2022-08-26T06:44:28.079Z,100825.47
2022-08-26T06:46:55.504Z,100825.98
2022-08-26T06:49:27.222Z,100823.98
2022-08-26T06:51:59.161Z,100820.80
2022-08-26T06:54:29.870Z,100820.53
2022-08-26T06:56:57.845Z,100818.83
2022-08-26T06:59:25.611Z,100820.36
2022-08-26T07:01:54.055Z,100815.59
2022-08-26T07:04:22.331Z,100809.02
2022-08-26T07:06:52.808Z,100802.36
2022-08-26T07:09:23.141Z,100799.52
2022-08-26T07:11:51.468Z,100797.48
2022-08-26T07:14:21.236Z,100793.05
2022-08-26T07:16:50.547Z,100792.27
2022-08-26T07:19:31.210Z,100791.44
2022-08-26T07:22:03.627Z,100786.39
2022-08-26T07:24:35.367Z,100783.88
2022-08-26T07:27:08.767Z,100780.54
2022-08-26T07:29:38.555Z,100770.26
2022-08-26T07:32:07.410Z,100770.23
2022-08-26T07:34:35.036Z,100765.39
2022-08-26T07:37:02.428Z,100761.77
2022-08-26T07:39:31.506Z,100760.45
2022-08-26T07:42:01.624Z,100761.95
2022-08-26T07:44:37.059Z,100761.90
2022-08-26T07:47:16.479Z,100760.89
2022-08-26T07:49:56.085Z,100759.35
2022-08-26T07:52:27.554Z,100756.64
2022-08-26T07:54:57.560Z,100761.61
2022-08-26T07:57:26.284Z,100762.40
2022-08-26T07:59:55.222Z,100753.59
2022-08-26T08:02:24.952Z,100757.14
2022-08-26T08:04:57.345Z,100754.23
2022-08-26T08:07:44.620Z,100748.97
2022-08-26T08:10:21.290Z,100743.42
2022-08-26T08:12:50.139Z,100733.66
2022-08-26T08:15:20.646Z,100731.67
2022-08-26T08:17:47.978Z,100725.48
2022-08-26T08:20:18.859Z,100724.36
2022-08-26T08:22:47.193Z,100726.81
2022-08-26T08:25:15.722Z,100732.21
2022-08-26T08:27:48.134Z,100729.02
2022-08-26T08:30:22.902Z,100726.83
2022-08-26T08:32:52.282Z,100723.13
2022-08-26T08:35:22.017Z,100725.05
2022-08-26T08:37:53.767Z,100723.61
2022-08-26T08:40:24.479Z,100723.59
2022-08-26T08:43:15.327Z,100721.10
2022-08-26T08:45:54.602Z,100719.55
2022-08-26T08:48:28.020Z,100715.34
2022-08-26T08:51:04.224Z,100715.73
2022-08-26T08:53:44.269Z,100714.29
2022-08-26T08:56:39.125Z,100710.84
2022-08-26T08:59:32.450Z,100713.39
2022-08-26T09:02:18.775Z,100715.48
2022-08-26T09:05:15.324Z,100712.10
2022-08-26T09:08:02.072Z,100713.98
2022-08-26T09:10:43.604Z,100713.61
2022-08-26T09:13:25.124Z,100711.75
2022-08-26T09:16:08.449Z,100711.48
2022-08-26T09:18:59.011Z,100707.79
2022-08-26T09:21:26.701Z,100696.15
2022-08-26T09:23:57.024Z,100693.02
2022-08-26T09:26:29.230Z,100689.48
2022-08-26T09:29:08.568Z,100685.70
2022-08-26T09:31:41.152Z,100684.15
2022-08-26T09:34:24.967Z,100681.05
2022-08-26T09:36:58.239Z,100676.42
2022-08-26T09:39:37.684Z,100670.48
2022-08-26T09:42:12.523Z,100666.98
2022-08-26T09:45:07.101Z,100666.16
2022-08-26T09:47:43.357Z,100667.35
2022-08-26T09:50:37.773Z,100663.55
2022-08-26T09:53:12.889Z,100667.10
2022-08-26T09:55:47.366Z,100660.90
2022-08-26T09:58:35.291Z,100661.95
2022-08-26T10:01:10.331Z,100655.35
2022-08-26T10:03:39.117Z,100652.91
2022-08-26T10:06:21.321Z,100654.77
2022-08-26T10:09:08.885Z,100652.30
2022-08-26T10:11:48.000Z,100648.42
2022-08-26T10:14:32.511Z,100644.48
2022-08-26T10:17:11.398Z,100643.29
2022-08-26T10:19:56.838Z,100638.67
2022-08-26T10:22:37.213Z,100631.96
2022-08-26T10:25:09.351Z,100631.98
2022-08-26T10:27:53.466Z,100629.30
2022-08-26T10:30:30.822Z,100622.77
2022-08-26T10:33:07.915Z,100623.53
2022-08-26T10:35:46.367Z,100625.59
2022-08-26T10:38:19.855Z,100619.41
2022-08-26T10:40:52.929Z,100620.27
2022-08-26T10:43:25.542Z,100617.08
2022-08-26T10:45:59.458Z,100613.29
2022-08-26T10:48:56.860Z,100611.73
2022-08-26T10:51:35.943Z,100610.83
2022-08-26T10:54:28.707Z,100606.68
2022-08-26T10:57:11.842Z,100600.85
2022-08-26T11:00:18.709Z,100598.96
2022-08-26T11:02:54.563Z,100594.73
2022-08-26T11:05:30.396Z,100590.80
2022-08-26T11:08:58.084Z,100588.37
2022-08-26T11:11:39.434Z,100586.64
2022-08-26T11:14:29.104Z,100588.30
2022-08-26T11:16:59.911Z,100583.36
2022-08-26T11:20:07.426Z,100581.63
2022-08-26T11:23:01.735Z,100580.29
2022-08-26T11:26:35.759Z,100578.31
2022-08-26T11:30:13.614Z,100581.73
2022-08-26T11:33:00.872Z,100582.64
2022-08-26T11:35:37.535Z,100577.86
2022-08-26T11:38:29.093Z,100580.59
2022-08-26T11:41:11.179Z,100581.77
2022-08-26T11:43:43.569Z,100579.86
2022-08-26T11:46:12.544Z,100570.79
2022-08-26T11:48:43.202Z,100564.21
2022-08-26T11:51:24.115Z,100568.66
2022-08-26T11:53:51.563Z,100567.33
2022-08-26T11:56:32.608Z,100567.16
2022-08-26T11:59:07.361Z,100568.73
2022-08-26T12:01:41.720Z,100566.97
2022-08-26T12:04:17.598Z,100566.69
2022-08-26T12:06:52.458Z,100560.23
2022-08-26T12:09:36.689Z,100558.83
2022-08-26T12:12:37.370Z,100554.03
2022-08-26T12:15:21.392Z,100555.48
2022-08-26T12:17:54.399Z,100551.62
2022-08-26T12:20:53.416Z,100548.18
2022-08-26T12:23:36.412Z,100548.80
2022-08-26T12:26:12.139Z,100548.27
2022-08-26T12:29:01.786Z,100550.24
2022-08-26T12:31:47.418Z,100544.65
2022-08-26T12:34:17.707Z,100540.35
2022-08-26T12:39:37.276Z,100537.70
2022-08-26T12:42:16.331Z,100535.60
2022-08-26T12:44:53.343Z,100530.16
2022-08-26T12:47:43.203Z,100526.58
2022-08-26T12:50:20.559Z,100526.81
2022-08-26T12:53:08.331Z,100525.09
2022-08-26T12:55:52.369Z,100522.41
2022-08-26T12:58:35.630Z,100518.76
2022-08-26T13:01:08.483Z,100518.42
2022-08-26T13:03:39.866Z,100513.16
2022-08-26T13:06:30.818Z,100511.61
2022-08-26T13:09:07.187Z,100505.32
2022-08-26T13:11:55.388Z,100504.59
2022-08-26T13:14:24.604Z,100501.92
2022-08-26T13:16:53.008Z,100499.84
2022-08-26T13:19:23.582Z,100502.10
2022-08-26T13:21:54.326Z,100501.69
2022-08-26T13:24:44.418Z,100502.36
2022-08-26T13:27:14.493Z,100511.11
2022-08-26T13:29:41.698Z,100511.59
2022-08-26T13:32:09.185Z,100509.63
2022-08-26T13:34:37.199Z,100513.39
2022-08-26T13:37:04.969Z,100508.45
2022-08-26T13:39:32.696Z,100513.14
2022-08-26T13:41:59.933Z,100514.56
2022-08-26T13:44:27.284Z,100517.09
2022-08-26T13:46:54.426Z,100514.39
2022-08-26T13:49:22.155Z,100516.81
2022-08-26T13:51:49.282Z,100518.02
2022-08-26T13:54:16.501Z,100517.75
2022-08-26T13:56:43.918Z,100520.02
2022-08-26T13:59:11.123Z,100520.03
2022-08-26T14:01:39.859Z,100515.66
2022-08-26T14:04:07.788Z,100519.46
2022-08-26T14:06:35.166Z,100519.39
2022-08-26T14:09:02.667Z,100519.83
2022-08-26T14:11:29.951Z,100516.00
2022-08-26T14:14:08.439Z,100522.09
2022-08-26T14:16:37.679Z,100515.84
2022-08-26T14:19:24.763Z,100518.42
2022-08-26T14:21:52.411Z,100515.86
2022-08-26T14:24:19.604Z,100514.68
2022-08-26T14:26:48.025Z,100512.66
2022-08-26T14:29:16.703Z,100513.15
2022-08-26T14:31:44.956Z,100513.66
2022-08-26T14:34:12.898Z,100512.79
2022-08-26T14:36:40.031Z,100515.60
2022-08-26T14:39:11.180Z,100515.08
2022-08-26T14:41:54.443Z,100514.06
2022-08-26T14:44:29.047Z,100513.81
2022-08-26T14:47:02.299Z,100513.17
2022-08-26T14:49:30.906Z,100514.53
2022-08-26T14:51:58.532Z,100512.81
2022-08-26T14:54:25.882Z,100515.84
2022-08-26T14:56:58.040Z,100515.30
2022-08-26T14:59:29.290Z,100517.24
2022-08-26T15:01:57.649Z,100513.66
2022-08-26T15:04:27.668Z,100513.23
2022-08-26T15:07:01.329Z,100513.48
2022-08-26T15:09:40.774Z,100517.99
2022-08-26T15:12:12.546Z,100519.24
2022-08-26T15:14:42.515Z,100519.64
2022-08-26T15:17:17.059Z,100519.27
2022-08-26T15:19:49.836Z,100515.72
2022-08-26T15:22:29.816Z,100514.63
2022-08-26T15:25:14.844Z,100513.82
2022-08-26T15:27:50.285Z,100512.95
2022-08-26T15:30:19.808Z,100509.20
2022-08-26T15:32:49.520Z,100509.55
2022-08-26T15:35:18.674Z,100510.79
2022-08-26T15:37:45.881Z,100517.61
2022-08-26T15:40:13.341Z,100517.54
2022-08-26T15:42:40.643Z,100518.89
2022-08-26T15:45:08.188Z,100516.77
2022-08-26T15:47:35.548Z,100520.98
2022-08-26T15:50:25.008Z,100518.44
2022-08-26T15:52:52.330Z,100520.53
2022-08-26T15:55:20.244Z,100524.42
2022-08-26T15:57:51.136Z,100524.23
2022-08-26T16:00:20.223Z,100521.36
2022-08-26T16:02:47.977Z,100530.67
2022-08-26T16:05:15.419Z,100532.58
2022-08-26T16:07:42.727Z,100533.73
2022-08-26T16:10:10.403Z,100535.70
2022-08-26T16:12:38.024Z,100534.96
2022-08-26T16:15:06.761Z,100533.85
2022-08-26T16:17:34.107Z,100535.59
2022-08-26T16:20:02.139Z,100538.35
2022-08-26T16:22:30.951Z,100538.52
2022-08-26T16:25:00.700Z,100539.02
2022-08-26T16:27:47.987Z,100537.55
2022-08-26T16:30:41.997Z,100542.52
2022-08-26T16:33:36.834Z,100542.86
2022-08-26T16:36:11.034Z,100543.05
2022-08-26T16:38:41.869Z,100540.77
2022-08-26T16:41:09.842Z,100537.71
2022-08-26T16:43:37.463Z,100540.67
2022-08-26T16:46:17.378Z,100539.84
2022-08-26T16:48:45.470Z,100538.94
2022-08-26T16:51:15.846Z,100539.95
2022-08-26T16:53:44.089Z,100536.67
2022-08-26T16:56:20.450Z,100532.92
2022-08-26T16:58:48.110Z,100535.93
2022-08-26T17:01:16.372Z,100536.04
2022-08-26T17:03:43.836Z,100537.23
2022-08-26T17:06:11.769Z,100540.91
2022-08-26T17:08:41.190Z,100541.72
2022-08-26T17:11:09.684Z,100537.70
2022-08-26T17:13:44.239Z,100537.74
2022-08-26T17:16:14.625Z,100541.83
2022-08-26T17:18:41.897Z,100545.08
2022-08-26T17:21:12.583Z,100544.48
2022-08-26T17:23:41.586Z,100551.58
2022-08-26T17:26:11.341Z,100554.27
2022-08-26T17:28:39.555Z,100556.89
2022-08-26T17:31:10.462Z,100562.16
2022-08-26T17:33:39.477Z,100564.02
2022-08-26T17:36:08.887Z,100563.69
2022-08-26T17:38:38.132Z,100568.98
2022-08-26T17:41:13.912Z,100572.63
2022-08-26T17:43:41.728Z,100569.96
2022-08-26T17:46:11.126Z,100574.92
2022-08-26T17:48:40.460Z,100577.30
2022-08-26T17:51:16.453Z,100579.39
2022-08-26T17:53:44.530Z,100578.59
2022-08-26T17:56:15.100Z,100582.56
2022-08-26T17:58:50.957Z,100577.76
2022-08-26T18:01:21.671Z,100577.14
2022-08-26T18:04:00.479Z,100575.02
2022-08-26T18:06:29.997Z,100578.67
2022-08-26T18:08:57.971Z,100579.06
2022-08-26T18:11:26.517Z,100581.16
2022-08-26T18:13:53.865Z,100580.63
2022-08-26T18:16:21.163Z,100581.54
2022-08-26T18:18:52.810Z,100583.30
2022-08-26T18:21:25.775Z,100580.89
2022-08-26T18:23:54.041Z,100581.30
2022-08-26T18:26:25.899Z,100578.85
2022-08-26T18:28:53.407Z,100577.42
2022-08-26T18:31:21.298Z,100579.30
2022-08-26T18:33:48.645Z,100579.13
2022-08-26T18:36:28.997Z,100583.34
2022-08-26T18:38:57.325Z,100582.38
2022-08-26T18:41:34.357Z,100581.98
2022-08-26T18:44:01.537Z,100582.68
2022-08-26T18:46:28.924Z,100579.70
2022-08-26T18:48:57.160Z,100580.58
2022-08-26T18:51:29.134Z,100581.40
2022-08-26T18:53:57.217Z,100580.05
2022-08-26T18:56:25.606Z,100579.57
2022-08-26T18:58:54.931Z,100580.49
2022-08-26T19:01:26.629Z,100579.89
2022-08-26T19:04:01.868Z,100579.25
2022-08-26T19:06:32.425Z,100579.38
2022-08-26T19:09:00.384Z,100576.15
2022-08-26T19:11:32.476Z,100581.15
2022-08-26T19:14:09.880Z,100586.96
2022-08-26T19:16:38.453Z,100590.74
2022-08-26T19:19:06.294Z,100591.73
2022-08-26T19:21:35.865Z,100595.71
2022-08-26T19:24:08.881Z,100592.23
2022-08-26T19:26:39.156Z,100592.39
2022-08-26T19:29:12.690Z,100592.88
2022-08-26T19:31:41.791Z,100594.41
2022-08-26T19:34:18.333Z,100592.59
2022-08-26T19:36:52.819Z,100590.21
2022-08-26T19:39:20.788Z,100588.65
2022-08-26T19:41:48.450Z,100588.23
2022-08-26T19:44:38.585Z,100588.13
2022-08-26T19:47:08.736Z,100587.73
2022-08-26T19:49:37.006Z,100586.52
2022-08-26T19:52:08.527Z,100583.66
2022-08-26T19:54:36.498Z,100588.46
2022-08-26T19:57:04.654Z,100588.66
2022-08-26T19:59:35.701Z,100588.71
2022-08-26T20:02:14.339Z,100587.11
2022-08-26T20:04:45.326Z,100589.67
2022-08-26T20:07:18.130Z,100591.55
2022-08-26T20:09:47.762Z,100590.85
2022-08-26T20:12:16.951Z,100593.45
2022-08-26T20:14:45.042Z,100595.75
2022-08-26T20:17:12.796Z,100590.56
2022-08-26T20:19:58.843Z,100598.88
2022-08-26T20:22:26.585Z,100599.80
2022-08-26T20:24:54.625Z,100600.71
2022-08-26T20:27:27.244Z,100600.73
2022-08-26T20:30:08.730Z,100601.16
2022-08-26T20:32:40.433Z,100598.77
2022-08-26T20:35:12.185Z,100596.57
2022-08-26T20:37:40.480Z,100593.57
2022-08-26T20:40:10.828Z,100593.27
2022-08-26T20:42:38.301Z,100594.45
2022-08-26T20:45:10.254Z,100592.61
2022-08-26T20:47:37.927Z,100594.39
2022-08-26T20:50:05.727Z,100596.95
2022-08-26T20:52:33.022Z,100597.38
2022-08-26T20:55:00.390Z,100600.16
2022-08-26T20:57:28.148Z,100603.32
2022-08-26T20:59:55.842Z,100603.55
2022-08-26T21:02:23.782Z,100603.83
2022-08-26T21:04:53.206Z,100608.02
2022-08-26T21:07:20.502Z,100610.02
2022-08-26T21:09:49.650Z,100610.76
2022-08-26T21:12:18.999Z,100610.98
2022-08-26T21:14:49.509Z,100614.76
2022-08-26T21:17:17.030Z,100616.42
2022-08-26T21:19:44.449Z,100616.77
2022-08-26T21:22:11.846Z,100616.97
2022-08-26T21:24:39.252Z,100616.10
2022-08-26T21:27:06.720Z,100616.56
2022-08-26T21:29:35.686Z,100614.20
2022-08-26T21:32:03.784Z,100614.77
2022-08-26T21:34:31.180Z,100616.95
2022-08-26T21:36:58.530Z,100622.35
2022-08-26T21:39:25.921Z,100621.35
2022-08-26T21:41:53.816Z,100622.65
2022-08-26T21:44:21.569Z,100627.23
2022-08-26T21:46:51.047Z,100627.15
2022-08-26T21:49:18.309Z,100626.25
2022-08-26T21:51:48.077Z,100623.84
2022-08-26T21:54:17.632Z,100625.20
2022-08-26T21:56:46.692Z,100620.00
2022-08-26T21:59:18.375Z,100619.61
2022-08-26T22:01:47.848Z,100622.26
2022-08-26T22:04:16.427Z,100617.65
2022-08-26T22:06:47.668Z,100613.68
2022-08-26T22:09:19.973Z,100612.86
2022-08-26T22:11:47.580Z,100614.13
2022-08-26T22:14:16.678Z,100618.58
2022-08-26T22:16:50.170Z,100617.08
2022-08-26T22:19:20.425Z,100619.56
2022-08-26T22:21:53.304Z,100619.27
2022-08-26T22:24:23.414Z,100618.15
2022-08-26T22:26:51.590Z,100622.01
2022-08-26T22:29:19.173Z,100625.46
2022-08-26T22:31:46.565Z,100624.94
2022-08-26T22:34:16.840Z,100622.66
2022-08-26T22:36:47.534Z,100620.63
2022-08-26T22:39:19.568Z,100620.29
2022-08-26T22:41:48.070Z,100619.21
2022-08-26T22:44:17.740Z,100621.23
2022-08-26T22:46:45.724Z,100618.73
2022-08-26T22:49:15.901Z,100620.02
2022-08-26T22:51:44.999Z,100620.23
2022-08-26T22:54:13.894Z,100619.60
2022-08-26T22:56:41.513Z,100616.31
2022-08-26T22:59:11.335Z,100615.98
2022-08-26T23:01:41.885Z,100615.81
2022-08-26T23:04:10.571Z,100615.17
2022-08-26T23:06:40.596Z,100613.64
2022-08-26T23:09:09.162Z,100613.02
2022-08-26T23:11:39.424Z,100612.12
2022-08-26T23:14:10.749Z,100615.61
2022-08-26T23:16:41.180Z,100615.99
2022-08-26T23:19:10.883Z,100615.61
2022-08-26T23:21:38.899Z,100617.80
2022-08-26T23:24:07.759Z,100620.09
2022-08-26T23:26:35.781Z,100621.88
2022-08-26T23:29:05.826Z,100619.27
2022-08-26T23:31:33.650Z,100624.48
2022-08-26T23:34:19.752Z,100625.92
2022-08-26T23:36:47.906Z,100624.35
2022-08-26T23:39:15.496Z,100622.03
2022-08-26T23:41:42.846Z,100625.02
2022-08-26T23:44:11.868Z,100624.75
2022-08-26T23:46:39.155Z,100622.15
2022-08-26T23:49:06.532Z,100614.08
2022-08-26T23:51:52.493Z,100611.45
2022-08-26T23:54:20.160Z,100613.42
2022-08-26T23:56:47.894Z,100613.69
2022-08-26T23:59:15.155Z,100615.40
